Time;durP1;ratioP1;P1;durP2;ratioP2;P2;SDS_P1;SDS_P2;PMS_P1;PMS_P2;Temp;Humidity;BMP_temperature;BMP_pressure;BME280_temperature;BME280_humidity;BME280_pressure;Samples;Min_cycle;Max_cycle;Signal;HPM_P1;HPM_P2
2024/01/23 00:01:21;;;;;;;;;;;6.70;99.90;;;;;;20730582;28;19914;-79
2024/01/23 00:11:22;;;;;;;;;;;6.70;99.90;;;;;;20726331;28;19918;-79
2024/01/23 00:21:22;;;;;;;;;;;6.60;99.90;;;;;;20723687;28;19913;-79
2024/01/23 00:31:23;;;;;;;;;;;6.50;99.90;;;;;;20717673;28;19973;-78
2024/01/23 00:41:24;;;;;;;;;;;6.50;99.90;;;;;;20712898;28;19918;-79
2024/01/23 00:51:24;;;;;;;;;;;6.40;99.90;;;;;;20726973;28;19963;-78
2024/01/23 01:01:25;;;;;;;;;;;6.50;99.90;;;;;;20714405;28;20391;-78
2024/01/23 01:11:26;;;;;;;;;;;6.70;99.90;;;;;;20716243;28;19917;-79
2024/01/23 01:21:26;;;;;;;;;;;6.60;99.90;;;;;;20716651;28;19921;-79
2024/01/23 01:31:28;;;;;;;;;;;6.60;99.90;;;;;;20702402;28;20376;-78
2024/01/23 01:41:29;;;;;;;;;;;6.50;99.90;;;;;;20717591;28;19922;-78
2024/01/23 01:51:30;;;;;;;;;;;6.40;99.90;;;;;;20687899;28;20336;-79
2024/01/23 02:01:33;;;;;;;;;;;6.50;99.90;;;;;;20711189;28;20394;-79
2024/01/23 02:11:33;;;;;;;;;;;6.70;99.90;;;;;;20708800;28;19917;-79
2024/01/23 02:21:34;;;;;;;;;;;6.70;99.90;;;;;;20712754;28;19914;-79
2024/01/23 02:31:35;;;;;;;;;;;6.60;99.90;;;;;;20714067;28;19918;-78
2024/01/23 02:41:35;;;;;;;;;;;6.50;99.90;;;;;;20722742;28;19941;-79
2024/01/23 02:51:36;;;;;;;;;;;6.50;99.90;;;;;;20721049;28;20404;-78
2024/01/23 03:01:37;;;;;;;;;;;6.60;99.90;;;;;;20721367;28;19969;-78
2024/01/23 03:11:37;;;;;;;;;;;6.50;99.90;;;;;;20724560;28;19973;-79
2024/01/23 03:21:38;;;;;;;;;;;6.60;99.90;;;;;;20715006;28;20117;-79
2024/01/23 03:31:39;;;;;;;;;;;6.50;99.90;;;;;;20714550;28;19921;-79
2024/01/23 03:41:40;;;;;;;;;;;6.40;99.90;;;;;;20710921;28;19946;-79
2024/01/23 03:51:40;;;;;;;;;;;5.70;99.90;;;;;;20715235;28;20348;-78
2024/01/23 04:01:41;;;;;;;;;;;5.30;99.90;;;;;;20710374;28;19914;-79
2024/01/23 04:11:44;;;;;;;;;;;5.30;99.90;;;;;;20702155;28;19918;-79
2024/01/23 04:21:46;;;;;;;;;;;5.60;99.90;;;;;;20718197;28;20412;-79
2024/01/23 04:31:47;;;;;;;;;;;5.80;99.90;;;;;;20724251;28;19924;-79
2024/01/23 04:41:47;;;;;;;;;;;5.60;99.90;;;;;;20707910;28;19917;-79
2024/01/23 04:51:48;;;;;;;;;;;5.50;99.90;;;;;;20708097;28;19989;-79
2024/01/23 05:01:49;;;;;;;;;;;5.40;99.90;;;;;;20701722;28;20388;-79
2024/01/23 05:11:49;;;;;;;;;;;5.10;99.90;;;;;;20691534;28;19917;-79
2024/01/23 05:21:50;;;;;;;;;;;5.70;99.90;;;;;;20703705;28;20380;-79
2024/01/23 05:31:50;;;;;;;;;;;5.80;99.90;;;;;;20707753;28;19917;-79
2024/01/23 05:41:51;;;;;;;;;;;5.80;99.90;;;;;;20708611;28;19996;-79
2024/01/23 05:51:52;;;;;;;;;;;5.80;99.90;;;;;;20686851;28;19968;-79
2024/01/23 06:01:52;;;;;;;;;;;5.80;99.90;;;;;;20691470;28;20387;-79
2024/01/23 06:11:53;;;;;;;;;;;5.60;99.90;;;;;;20697507;28;19925;-78
2024/01/23 06:21:53;;;;;;;;;;;5.30;99.90;;;;;;20706826;28;19914;-79
2024/01/23 06:31:54;;;;;;;;;;;5.20;99.90;;;;;;20696606;28;19924;-78
2024/01/23 06:41:55;;;;;;;;;;;5.30;99.90;;;;;;20701533;28;19917;-77
2024/01/23 06:51:55;;;;;;;;;;;5.30;99.90;;;;;;20707223;28;19957;-78
2024/01/23 07:01:56;;;;;;;;;;;5.30;99.90;;;;;;20715527;28;19920;-79
2024/01/23 07:11:56;;;;;;;;;;;5.40;99.90;;;;;;20719825;28;20316;-78
2024/01/23 07:21:57;;;;;;;;;;;5.60;99.90;;;;;;20728667;28;19914;-79
2024/01/23 07:31:58;;;;;;;;;;;5.60;99.90;;;;;;20734130;28;19924;-80
2024/01/23 07:41:58;;;;;;;;;;;5.80;99.90;;;;;;20724564;28;19964;-80
2024/01/23 07:51:59;;;;;;;;;;;6.10;99.90;;;;;;20725611;28;19961;-80
2024/01/23 08:02:00;;;;;;;;;;;6.10;99.90;;;;;;20714647;28;19913;-80
2024/01/23 08:12:01;;;;;;;;;;;6.00;99.90;;;;;;20730410;28;19918;-80
2024/01/23 08:22:03;;;;;;;;;;;5.80;99.90;;;;;;20721767;28;19914;-80
2024/01/23 08:32:03;;;;;;;;;;;5.90;99.90;;;;;;20736433;28;19925;-79
2024/01/23 08:42:04;;;;;;;;;;;5.80;99.90;;;;;;20730449;28;20156;-79
2024/01/23 08:52:05;;;;;;;;;;;5.80;99.90;;;;;;20724431;28;19944;-80
2024/01/23 09:02:06;;;;;;;;;;;5.90;99.90;;;;;;20717183;28;20387;-80
2024/01/23 09:12:06;;;;;;;;;;;5.90;99.90;;;;;;20712935;28;19917;-79
2024/01/23 09:22:07;;;;;;;;;;;5.90;99.90;;;;;;20739125;28;20007;-79
2024/01/23 09:32:08;;;;;;;;;;;5.90;99.90;;;;;;20723429;28;19918;-80
2024/01/23 09:42:10;;;;;;;;;;;6.00;99.90;;;;;;20741476;28;19992;-80
2024/01/23 09:52:11;;;;;;;;;;;6.20;99.90;;;;;;20722589;28;19925;-79
2024/01/23 10:02:12;;;;;;;;;;;6.40;99.90;;;;;;20730884;28;19952;-79
2024/01/23 10:12:12;;;;;;;;;;;7.00;99.90;;;;;;20740241;28;19919;-80
2024/01/23 10:22:15;;;;;;;;;;;8.20;99.90;;;;;;20733615;28;20000;-79
2024/01/23 10:32:16;;;;;;;;;;;8.70;99.90;;;;;;20731070;28;19921;-78
2024/01/23 10:42:19;;;;;;;;;;;9.20;99.90;;;;;;20717052;28;19924;-80
2024/01/23 10:52:25;;;;;;;;;;;9.00;99.90;;;;;;20720681;28;19922;-78
2024/01/23 11:02:29;;;;;;;;;;;8.60;99.90;;;;;;20720384;28;20395;-78
2024/01/23 11:12:36;;;;;;;;;;;8.80;99.90;;;;;;20737127;28;19921;-79
2024/01/23 11:22:37;;;;;;;;;;;8.80;99.90;;;;;;20744443;28;19917;-78
2024/01/23 11:32:37;;;;;;;;;;;9.20;99.90;;;;;;20732312;28;19926;-79
2024/01/23 11:42:41;;;;;;;;;;;9.10;99.90;;;;;;20729152;28;19917;-79
2024/01/23 11:52:46;;;;;;;;;;;9.20;99.90;;;;;;20737249;28;19927;-80
2024/01/23 12:02:47;;;;;;;;;;;9.10;99.90;;;;;;20731629;28;20376;-80
2024/01/23 12:12:55;;;;;;;;;;;8.90;99.90;;;;;;20731047;28;19922;-79
2024/01/23 12:22:55;;;;;;;;;;;9.00;99.90;;;;;;20713919;28;20036;-79
2024/01/23 12:32:57;;;;;;;;;;;8.90;99.90;;;;;;20702136;28;19945;-78
2024/01/23 12:42:57;;;;;;;;;;;8.90;99.90;;;;;;20723448;28;20381;-79
2024/01/23 12:52:59;;;;;;;;;;;8.70;99.90;;;;;;20727842;28;19918;-80
2024/01/23 13:02:59;;;;;;;;;;;8.60;99.90;;;;;;20734729;28;20066;-79
2024/01/23 13:13:00;;;;;;;;;;;8.40;99.90;;;;;;20728808;28;19928;-77
2024/01/23 13:23:00;;;;;;;;;;;8.40;99.90;;;;;;20696801;28;19968;-79
2024/01/23 13:33:01;;;;;;;;;;;8.20;99.90;;;;;;20677375;28;20401;-79
2024/01/23 13:43:02;;;;;;;;;;;8.20;99.90;;;;;;20686732;28;19921;-78
2024/01/23 13:53:02;;;;;;;;;;;8.20;99.90;;;;;;20675293;28;19917;-77
2024/01/23 14:03:03;;;;;;;;;;;8.30;99.90;;;;;;20689137;28;20379;-78
2024/01/23 14:13:04;;;;;;;;;;;8.40;99.90;;;;;;20691326;28;19924;-78
2024/01/23 14:23:05;;;;;;;;;;;8.40;99.90;;;;;;20688508;28;19914;-78
2024/01/23 14:33:06;;;;;;;;;;;8.30;99.90;;;;;;20697254;28;19925;-78
2024/01/23 14:43:09;;;;;;;;;;;8.20;99.90;;;;;;20709550;28;19936;-78
2024/01/23 14:53:13;;;;;;;;;;;8.10;99.90;;;;;;20707194;28;20397;-78
2024/01/23 15:03:14;;;;;;;;;;;8.00;99.90;;;;;;20696476;28;19914;-78
2024/01/23 15:13:15;;;;;;;;;;;8.00;99.90;;;;;;20712807;28;19918;-78
2024/01/23 15:23:16;;;;;;;;;;;8.00;99.90;;;;;;20701399;28;19914;-78
2024/01/23 15:33:16;;;;;;;;;;;7.90;99.90;;;;;;20703713;28;20395;-78
2024/01/23 15:43:17;;;;;;;;;;;7.80;99.90;;;;;;20716174;28;19960;-78
2024/01/23 15:53:18;;;;;;;;;;;7.80;99.90;;;;;;20686156;28;19921;-79
2024/01/23 16:03:18;;;;;;;;;;;7.70;99.90;;;;;;20695660;28;19914;-78
2024/01/23 16:13:19;;;;;;;;;;;7.70;99.90;;;;;;20689753;28;19918;-79
2024/01/23 16:23:20;;;;;;;;;;;7.70;99.90;;;;;;20693934;28;20359;-78
2024/01/23 16:33:20;;;;;;;;;;;7.60;99.90;;;;;;20684650;28;20016;-76
2024/01/23 16:43:21;;;;;;;;;;;7.60;99.90;;;;;;20673917;28;19921;-77
2024/01/23 16:53:22;;;;;;;;;;;7.60;99.90;;;;;;20688906;28;19918;-78
2024/01/23 17:03:23;;;;;;;;;;;7.50;99.90;;;;;;20678064;28;20359;-79
2024/01/23 17:13:24;;;;;;;;;;;7.30;99.90;;;;;;20677328;28;19917;-77
2024/01/23 17:23:24;;;;;;;;;;;7.10;99.90;;;;;;20680474;28;19968;-78
2024/01/23 17:33:29;;;;;;;;;;;6.90;99.90;;;;;;20701597;28;19918;-79
2024/01/23 17:43:29;;;;;;;;;;;6.90;99.90;;;;;;20696600;28;19957;-78
2024/01/23 17:53:30;;;;;;;;;;;6.60;99.90;;;;;;20703789;28;20017;-79
2024/01/23 18:03:31;;;;;;;;;;;6.70;99.90;;;;;;20742446;28;19913;-78
2024/01/23 18:13:32;;;;;;;;;;;6.80;99.90;;;;;;20713473;28;19925;-78
2024/01/23 18:23:33;;;;;;;;;;;6.70;99.90;;;;;;20722571;28;20329;-79
2024/01/23 18:33:34;;;;;;;;;;;6.70;99.90;;;;;;20700514;28;19924;-80
2024/01/23 18:43:35;;;;;;;;;;;6.50;99.90;;;;;;20722731;28;20389;-79
2024/01/23 18:53:35;;;;;;;;;;;6.30;99.90;;;;;;20722706;28;20112;-79
2024/01/23 19:03:36;;;;;;;;;;;6.20;99.90;;;;;;20718018;28;19953;-79
2024/01/23 19:13:37;;;;;;;;;;;6.10;99.90;;;;;;20732337;28;19949;-79
2024/01/23 19:23:38;;;;;;;;;;;5.80;99.90;;;;;;20717734;28;19921;-79
2024/01/23 19:33:38;;;;;;;;;;;5.90;99.90;;;;;;20704590;28;20417;-79
2024/01/23 19:43:39;;;;;;;;;;;5.90;99.90;;;;;;20717207;28;19920;-79
2024/01/23 19:53:40;;;;;;;;;;;6.00;99.90;;;;;;20706827;28;19921;-80
2024/01/23 20:03:41;;;;;;;;;;;5.80;99.90;;;;;;20714332;28;19918;-80
2024/01/23 20:13:42;;;;;;;;;;;5.90;99.90;;;;;;20715910;28;19918;-79
2024/01/23 20:23:44;;;;;;;;;;;5.90;99.90;;;;;;20715611;28;19913;-78
2024/01/23 20:33:44;;;;;;;;;;;5.80;99.90;;;;;;20747070;28;19924;-81
2024/01/23 20:43:46;;;;;;;;;;;5.80;99.90;;;;;;20754573;28;19913;-81
2024/01/23 20:53:46;;;;;;;;;;;5.70;99.90;;;;;;20735738;28;19924;-78
2024/01/23 21:03:47;;;;;;;;;;;5.50;99.90;;;;;;20724492;28;19922;-80
2024/01/23 21:13:48;;;;;;;;;;;5.40;99.90;;;;;;20736883;28;19921;-80
2024/01/23 21:23:49;;;;;;;;;;;5.50;99.90;;;;;;20714578;28;19914;-81
2024/01/23 21:33:49;;;;;;;;;;;5.70;99.90;;;;;;20709693;28;20854;-80
2024/01/23 21:43:50;;;;;;;;;;;5.80;99.90;;;;;;20719914;28;19922;-79
2024/01/23 21:53:51;;;;;;;;;;;5.90;99.90;;;;;;20707182;28;20384;-80
2024/01/23 22:03:51;;;;;;;;;;;5.80;99.90;;;;;;20696728;28;19914;-78
2024/01/23 22:13:53;;;;;;;;;;;5.60;99.90;;;;;;20717032;28;19965;-78
2024/01/23 22:23:53;;;;;;;;;;;5.60;99.90;;;;;;20720716;28;19921;-81
2024/01/23 22:33:55;;;;;;;;;;;5.70;99.90;;;;;;20706521;28;19957;-79
2024/01/23 22:43:55;;;;;;;;;;;5.70;99.90;;;;;;20702180;28;19914;-78
2024/01/23 22:53:56;;;;;;;;;;;5.70;99.90;;;;;;20734316;28;20368;-79
2024/01/23 23:03:57;;;;;;;;;;;5.60;99.90;;;;;;20734663;28;19936;-79
2024/01/23 23:13:58;;;;;;;;;;;5.70;99.90;;;;;;20791261;28;19925;-78
2024/01/23 23:23:58;;;;;;;;;;;5.80;99.90;;;;;;20782265;28;20006;-78
2024/01/23 23:33:59;;;;;;;;;;;5.70;99.90;;;;;;20723903;28;19945;-79
2024/01/23 23:44:00;;;;;;;;;;;5.70;99.90;;;;;;20748130;28;19921;-79
2024/01/23 23:54:01;;;;;;;;;;;5.80;99.90;;;;;;20726919;28;19922;-79
